Ricardo, Texas
Current Conditions -  °F | °C
As of 5:56 PM on Tuesday 25 Nov 2014 (Local Time) from KNQI Reporting Station
Clear Clear  
Wind Chill: 62°   Ceiling: Unl
Heat Index: 62°   Visibility: 10mi
Dew Point: 35°   Wind: 3mph
Humidity: 37%   Direction: 130°SE
Pressure: 30.26"   Gusts: NA
Location:  27.4762°N, 97.7965°W
Report Text: KNQI 252356Z 13003KT 10SM CLR 17/02 A3026 RMK AO2 SLP245 T01670017 10206 20156 56009
Loading
Personal Weather Stations






























Interactive Weather Map New forecast layout! Learn more

10-Day Weather Forecast

Advertisements
Track Severe Weather on mobile